Time;durP1;ratioP1;P1;durP2;ratioP2;P2;SDS_P1;SDS_P2;PMS_P1;PMS_P2;Temp;Humidity;BMP_temperature;BMP_pressure;BME280_temperature;BME280_humidity;BME280_pressure;Samples;Min_cycle;Max_cycle;Signal;HPM_P1;HPM_P2
2021/10/07 00:02:07;;;;;;;2.38;1.80;;;;;;;;;;5072799;28;20040;-50
2021/10/07 00:04:33;;;;;;;4.45;1.73;;;;;;;;;;5079636;28;20040;-51
2021/10/07 00:06:59;;;;;;;2.65;2.03;;;;;;;;;;5072232;28;20059;-53
2021/10/07 00:09:25;;;;;;;1.88;1.70;;;;;;;;;;5069007;28;20024;-50
2021/10/07 00:11:52;;;;;;;1.98;1.50;;;;;;;;;;5058329;28;20358;-52
2021/10/07 00:14:18;;;;;;;2.20;1.90;;;;;;;;;;5071322;28;20048;-50
2021/10/07 00:16:44;;;;;;;3.13;1.77;;;;;;;;;;5070095;28;20360;-54
2021/10/07 00:19:10;;;;;;;2.78;2.10;;;;;;;;;;5069435;28;20131;-49
2021/10/07 00:21:36;;;;;;;1.95;1.63;;;;;;;;;;5072195;28;20541;-51
2021/10/07 00:24:09;;;;;;;2.72;1.58;;;;;;;;;;5073670;28;20142;-52
2021/10/07 00:26:36;;;;;;;3.17;1.90;;;;;;;;;;5062365;28;20521;-50
2021/10/07 00:29:23;;;;;;;2.35;1.67;;;;;;;;;;5070073;28;20029;-52
2021/10/07 00:31:53;;;;;;;7.53;1.90;;;;;;;;;;5067570;28;20021;-50
2021/10/07 00:39:49;;;;;;;2.65;1.70;;;;;;;;;;5066072;28;20074;-53
2021/10/07 00:42:16;;;;;;;3.03;2.15;;;;;;;;;;5064564;28;20029;-52
2021/10/07 00:44:44;;;;;;;3.10;1.90;;;;;;;;;;5069863;28;20577;-49
2021/10/07 00:47:10;;;;;;;2.78;1.67;;;;;;;;;;5070467;28;20115;-49
2021/10/07 00:49:39;;;;;;;3.17;2.13;;;;;;;;;;5072995;28;20032;-49
2021/10/07 00:52:09;;;;;;;1.60;1.38;;;;;;;;;;5069147;28;20029;-50
2021/10/07 00:54:36;;;;;;;2.67;1.73;;;;;;;;;;5070963;28;20033;-49
2021/10/07 00:57:03;;;;;;;2.30;1.73;;;;;;;;;;5073427;28;20036;-50
2021/10/07 00:59:29;;;;;;;2.70;1.92;;;;;;;;;;5072507;28;20131;-53
2021/10/07 01:01:55;;;;;;;3.40;2.00;;;;;;;;;;5071043;28;20696;-49
2021/10/07 01:04:21;;;;;;;1.65;1.55;;;;;;;;;;5065051;28;20034;-49
2021/10/07 01:06:47;;;;;;;4.18;1.63;;;;;;;;;;5067371;28;20567;-51
2021/10/07 01:09:15;;;;;;;6.85;2.00;;;;;;;;;;5069076;28;20027;-51
2021/10/07 01:11:41;;;;;;;2.53;1.75;;;;;;;;;;5076879;28;20029;-54
2021/10/07 01:14:07;;;;;;;4.35;1.90;;;;;;;;;;5066514;28;20118;-50
2021/10/07 01:16:34;;;;;;;2.55;1.73;;;;;;;;;;5064750;28;20025;-50
2021/10/07 01:19:00;;;;;;;2.10;1.50;;;;;;;;;;5064041;28;20131;-53
2021/10/07 01:21:26;;;;;;;2.72;1.90;;;;;;;;;;5062174;28;20564;-50
2021/10/07 01:23:52;;;;;;;1.90;1.60;;;;;;;;;;5065897;28;20142;-51
2021/10/07 01:26:19;;;;;;;2.58;1.58;;;;;;;;;;5069486;28;20155;-51
2021/10/07 01:28:46;;;;;;;2.92;1.85;;;;;;;;;;5071671;28;20461;-50
2021/10/07 01:31:12;;;;;;;3.47;1.85;;;;;;;;;;5066828;28;20111;-49
2021/10/07 01:33:39;;;;;;;2.38;1.67;;;;;;;;;;5070366;28;20021;-49
2021/10/07 01:36:06;;;;;;;3.33;1.50;;;;;;;;;;5070783;28;20020;-51
2021/10/07 01:38:32;;;;;;;2.40;1.60;;;;;;;;;;5070564;28;20025;-49
2021/10/07 01:40:58;;;;;;;2.78;1.70;;;;;;;;;;5069731;28;20436;-51
2021/10/07 01:43:24;;;;;;;2.40;1.50;;;;;;;;;;5070111;28;20033;-51
2021/10/07 01:45:51;;;;;;;5.22;1.77;;;;;;;;;;5072543;28;20117;-50
2021/10/07 01:48:17;;;;;;;4.15;1.83;;;;;;;;;;5068608;28;20607;-50
2021/10/07 01:50:43;;;;;;;1.98;1.60;;;;;;;;;;5068999;28;20466;-50
2021/10/07 01:53:10;;;;;;;3.03;1.92;;;;;;;;;;5065277;28;20683;-50
2021/10/07 01:55:36;;;;;;;2.95;1.40;;;;;;;;;;5072431;28;20029;-50
2021/10/07 01:58:02;;;;;;;3.28;1.80;;;;;;;;;;5071516;28;20048;-52
2021/10/07 02:00:28;;;;;;;2.03;1.50;;;;;;;;;;5065377;28;20503;-49
2021/10/07 02:02:54;;;;;;;4.53;1.60;;;;;;;;;;5064743;28;20094;-49
2021/10/07 02:05:20;;;;;;;7.68;2.03;;;;;;;;;;5072062;28;20044;-49
2021/10/07 02:07:46;;;;;;;2.28;1.67;;;;;;;;;;5071985;28;20369;-50
2021/10/07 02:10:15;;;;;;;1.70;1.45;;;;;;;;;;5068636;28;20021;-49
2021/10/07 02:12:45;;;;;;;1.88;1.60;;;;;;;;;;5062199;28;20025;-49
2021/10/07 02:15:11;;;;;;;2.88;1.63;;;;;;;;;;5060524;28;20021;-51
2021/10/07 02:17:38;;;;;;;1.92;1.42;;;;;;;;;;5065398;28;20021;-49
2021/10/07 02:20:05;;;;;;;4.40;2.05;;;;;;;;;;5070295;28;20049;-51
2021/10/07 02:22:31;;;;;;;1.92;1.73;;;;;;;;;;5068239;28;20502;-51
2021/10/07 02:24:57;;;;;;;2.15;1.85;;;;;;;;;;5066381;28;20121;-50
2021/10/07 02:27:23;;;;;;;2.33;1.77;;;;;;;;;;5065104;28;20082;-50
2021/10/07 02:29:50;;;;;;;3.60;2.38;;;;;;;;;;5070973;28;20488;-51
2021/10/07 02:32:15;;;;;;;2.00;1.70;;;;;;;;;;5070071;28;20044;-50
2021/10/07 02:34:41;;;;;;;3.35;2.00;;;;;;;;;;5070539;28;20032;-50
2021/10/07 02:37:10;;;;;;;1.83;1.40;;;;;;;;;;5072002;28;20143;-51
2021/10/07 02:39:36;;;;;;;4.28;2.22;;;;;;;;;;5071157;28;20024;-49
2021/10/07 02:42:02;;;;;;;3.30;1.88;;;;;;;;;;5068324;28;20028;-49
2021/10/07 02:44:27;;;;;;;2.65;2.13;;;;;;;;;;5065416;28;20540;-54
2021/10/07 02:46:54;;;;;;;2.33;1.85;;;;;;;;;;5071580;28;20082;-49
2021/10/07 02:49:20;;;;;;;3.00;2.15;;;;;;;;;;5064681;28;20424;-49
2021/10/07 02:51:46;;;;;;;2.25;1.95;;;;;;;;;;5071261;28;20033;-51
2021/10/07 02:54:12;;;;;;;3.40;2.63;;;;;;;;;;5063586;28;20488;-49
2021/10/07 02:56:38;;;;;;;2.17;1.98;;;;;;;;;;5066015;28;20035;-53
2021/10/07 02:59:04;;;;;;;2.85;2.35;;;;;;;;;;5066199;28;20546;-52
2021/10/07 03:01:30;;;;;;;3.53;2.20;;;;;;;;;;5071187;28;20060;-50
2021/10/07 03:03:56;;;;;;;3.15;2.20;;;;;;;;;;5068318;28;20103;-49
2021/10/07 03:06:22;;;;;;;3.17;2.25;;;;;;;;;;5071453;28;20047;-49
2021/10/07 03:08:48;;;;;;;2.13;1.88;;;;;;;;;;5070010;28;20063;-51
2021/10/07 03:11:15;;;;;;;2.53;1.70;;;;;;;;;;5072373;28;20056;-51
2021/10/07 03:13:41;;;;;;;3.88;1.73;;;;;;;;;;5070210;28;20528;-50
2021/10/07 03:16:07;;;;;;;2.15;1.50;;;;;;;;;;5071182;28;20039;-50
2021/10/07 03:18:33;;;;;;;2.25;1.90;;;;;;;;;;5068187;28;20111;-49
2021/10/07 03:20:59;;;;;;;2.72;1.70;;;;;;;;;;5070896;28;20079;-51
2021/10/07 03:23:25;;;;;;;3.50;1.95;;;;;;;;;;5063047;28;20020;-49
2021/10/07 03:25:51;;;;;;;2.17;1.77;;;;;;;;;;5066632;28;20475;-51
2021/10/07 03:28:17;;;;;;;3.17;2.10;;;;;;;;;;5067922;28;20029;-53
2021/10/07 03:30:43;;;;;;;2.58;1.77;;;;;;;;;;5070731;28;20037;-52
2021/10/07 03:33:10;;;;;;;2.42;1.70;;;;;;;;;;5066389;28;20377;-52
2021/10/07 03:35:36;;;;;;;4.75;1.73;;;;;;;;;;5071452;28;20480;-51
2021/10/07 03:38:03;;;;;;;3.60;2.45;;;;;;;;;;5070096;28;20474;-54
2021/10/07 03:40:29;;;;;;;2.42;1.80;;;;;;;;;;5074284;28;20085;-53
2021/10/07 03:42:55;;;;;;;3.78;1.80;;;;;;;;;;5066265;28;20037;-50
2021/10/07 03:45:21;;;;;;;2.53;1.67;;;;;;;;;;5074620;28;20036;-49
2021/10/07 03:47:47;;;;;;;2.20;1.55;;;;;;;;;;5074520;28;20101;-50
2021/10/07 03:50:13;;;;;;;3.20;1.73;;;;;;;;;;5073611;28;20036;-50
2021/10/07 03:52:39;;;;;;;2.40;1.80;;;;;;;;;;5074090;28;20025;-51
2021/10/07 03:55:05;;;;;;;3.47;2.00;;;;;;;;;;5074574;28;20032;-49
2021/10/07 03:57:31;;;;;;;3.35;2.03;;;;;;;;;;5071804;28;20148;-51
2021/10/07 03:59:57;;;;;;;3.25;2.10;;;;;;;;;;5071604;28;20050;-50
2021/10/07 04:02:23;;;;;;;4.45;2.10;;;;;;;;;;5072559;28;20124;-51
2021/10/07 04:04:50;;;;;;;7.25;2.60;;;;;;;;;;5074140;28;20488;-49
2021/10/07 04:07:16;;;;;;;4.70;2.47;;;;;;;;;;5072194;28;20055;-51
2021/10/07 04:09:42;;;;;;;4.90;2.75;;;;;;;;;;5073327;28;20056;-54
2021/10/07 04:12:08;;;;;;;4.63;2.88;;;;;;;;;;5069534;28;20033;-55
2021/10/07 04:14:34;;;;;;;2.80;2.42;;;;;;;;;;5071619;28;20032;-52
2021/10/07 04:17:00;;;;;;;3.70;2.20;;;;;;;;;;5071697;28;20024;-52
2021/10/07 04:19:26;;;;;;;4.28;2.30;;;;;;;;;;5067346;28;20129;-52
2021/10/07 04:21:52;;;;;;;2.75;2.10;;;;;;;;;;5073259;28;20384;-56
2021/10/07 04:24:18;;;;;;;3.00;2.40;;;;;;;;;;5072771;28;20418;-52
2021/10/07 04:26:44;;;;;;;3.35;2.05;;;;;;;;;;5066204;28;20438;-54
2021/10/07 04:29:10;;;;;;;5.93;2.50;;;;;;;;;;5068034;28;20039;-54
2021/10/07 04:31:38;;;;;;;3.58;2.13;;;;;;;;;;5071473;28;20031;-52
2021/10/07 04:34:04;;;;;;;4.07;2.75;;;;;;;;;;5067114;28;20029;-52
2021/10/07 04:36:30;;;;;;;3.75;2.75;;;;;;;;;;5074264;28;20614;-51
2021/10/07 04:38:56;;;;;;;3.72;2.20;;;;;;;;;;5078619;28;20020;-55
2021/10/07 04:41:21;;;;;;;4.28;2.78;;;;;;;;;;5074986;28;20016;-55
2021/10/07 04:43:47;;;;;;;3.33;2.47;;;;;;;;;;5064566;28;20032;-52
2021/10/07 04:46:18;;;;;;;4.78;2.08;;;;;;;;;;5067559;28;20025;-54
2021/10/07 04:48:44;;;;;;;7.18;2.30;;;;;;;;;;5073893;28;20020;-53
2021/10/07 04:51:10;;;;;;;4.32;2.80;;;;;;;;;;5070557;28;20106;-55
2021/10/07 04:53:36;;;;;;;4.32;2.55;;;;;;;;;;5066182;28;20465;-53
2021/10/07 04:56:02;;;;;;;4.40;3.08;;;;;;;;;;5069495;28;20094;-52
2021/10/07 04:58:28;;;;;;;3.75;2.50;;;;;;;;;;5068686;28;20025;-53
2021/10/07 05:00:54;;;;;;;4.70;2.90;;;;;;;;;;5073749;28;20035;-56
2021/10/07 05:03:20;;;;;;;3.85;2.47;;;;;;;;;;5073277;28;20033;-56
2021/10/07 05:05:46;;;;;;;4.90;2.92;;;;;;;;;;5070048;28;20112;-56
2021/10/07 05:08:12;;;;;;;4.43;2.70;;;;;;;;;;5069267;28;20029;-56
2021/10/07 05:10:38;;;;;;;3.88;2.38;;;;;;;;;;5065380;28;20028;-54
2021/10/07 05:13:04;;;;;;;5.10;2.50;;;;;;;;;;5064248;28;20024;-54
2021/10/07 05:15:30;;;;;;;3.08;2.03;;;;;;;;;;5066159;28;20518;-53
2021/10/07 05:17:56;;;;;;;3.58;2.28;;;;;;;;;;5072643;28;20111;-54
2021/10/07 05:20:22;;;;;;;4.45;2.38;;;;;;;;;;5069551;28;20029;-52
2021/10/07 05:22:48;;;;;;;3.42;2.20;;;;;;;;;;5072657;28;20020;-52
2021/10/07 05:25:14;;;;;;;3.20;2.40;;;;;;;;;;5069424;28;20539;-52
2021/10/07 05:27:41;;;;;;;2.60;2.03;;;;;;;;;;5072699;28;20119;-52
2021/10/07 05:30:07;;;;;;;3.10;1.92;;;;;;;;;;5069204;28;20111;-51
2021/10/07 05:32:33;;;;;;;3.33;2.50;;;;;;;;;;5065504;28;20086;-52
2021/10/07 05:34:59;;;;;;;3.53;2.47;;;;;;;;;;5071316;28;20028;-55
2021/10/07 05:37:26;;;;;;;3.83;3.05;;;;;;;;;;5066495;28;20044;-52
2021/10/07 05:39:52;;;;;;;4.35;2.60;;;;;;;;;;5071820;28;20025;-52
2021/10/07 05:42:18;;;;;;;3.33;2.25;;;;;;;;;;5070963;28;20400;-56
2021/10/07 05:44:44;;;;;;;4.18;2.50;;;;;;;;;;5067884;28;20028;-52
2021/10/07 05:47:10;;;;;;;4.85;2.63;;;;;;;;;;5069799;28;20052;-52
2021/10/07 05:49:36;;;;;;;4.20;2.65;;;;;;;;;;5072725;28;20078;-53
2021/10/07 05:52:02;;;;;;;3.78;2.55;;;;;;;;;;5070832;28;20439;-54
2021/10/07 05:54:28;;;;;;;4.13;2.70;;;;;;;;;;5071939;28;20041;-53
2021/10/07 05:56:54;;;;;;;4.72;2.50;;;;;;;;;;5072857;28;20380;-51
2021/10/07 05:59:20;;;;;;;3.58;2.58;;;;;;;;;;5071528;28;20066;-55
2021/10/07 06:01:46;;;;;;;6.18;2.70;;;;;;;;;;5072008;28;20032;-55
2021/10/07 06:04:12;;;;;;;5.80;2.22;;;;;;;;;;5072359;28;20052;-55
2021/10/07 06:06:38;;;;;;;3.13;2.42;;;;;;;;;;5071931;28;20032;-56
2021/10/07 06:09:07;;;;;;;3.15;2.10;;;;;;;;;;5071870;28;20029;-57
2021/10/07 06:11:33;;;;;;;3.03;2.55;;;;;;;;;;5073659;28;20016;-52
2021/10/07 06:13:59;;;;;;;3.95;2.22;;;;;;;;;;5071628;28;20067;-52
2021/10/07 06:16:26;;;;;;;5.53;2.25;;;;;;;;;;5070331;28;20044;-54
2021/10/07 06:18:52;;;;;;;3.28;2.40;;;;;;;;;;5074725;28;20051;-53
2021/10/07 06:21:18;;;;;;;3.83;2.25;;;;;;;;;;5071734;28;20012;-53
2021/10/07 06:23:44;;;;;;;3.20;2.00;;;;;;;;;;5060785;28;20041;-56
2021/10/07 06:26:10;;;;;;;5.65;2.50;;;;;;;;;;5065429;28;20024;-53
2021/10/07 06:28:36;;;;;;;3.53;2.33;;;;;;;;;;5072634;28;20035;-52
2021/10/07 06:31:02;;;;;;;3.63;2.63;;;;;;;;;;5072200;28;20025;-53
2021/10/07 06:33:30;;;;;;;4.25;3.13;;;;;;;;;;5072214;28;20137;-52
2021/10/07 06:35:58;;;;;;;3.78;2.50;;;;;;;;;;5070544;28;20025;-54
2021/10/07 06:38:24;;;;;;;5.90;2.60;;;;;;;;;;5070657;28;20111;-52
2021/10/07 06:40:50;;;;;;;5.75;2.97;;;;;;;;;;5062951;28;20379;-56
2021/10/07 06:43:16;;;;;;;3.95;2.28;;;;;;;;;;5065112;28;20032;-54
2021/10/07 06:45:42;;;;;;;2.80;1.98;;;;;;;;;;5071879;28;20032;-54
2021/10/07 06:48:10;;;;;;;3.67;2.30;;;;;;;;;;5070645;28;20124;-54
2021/10/07 06:50:40;;;;;;;2.42;1.83;;;;;;;;;;5072202;28;20384;-51
2021/10/07 06:53:06;;;;;;;5.03;1.77;;;;;;;;;;5070224;28;20506;-52
2021/10/07 06:55:32;;;;;;;3.13;2.20;;;;;;;;;;5069916;28;20104;-57
2021/10/07 06:57:58;;;;;;;3.42;2.00;;;;;;;;;;5055774;28;20059;-57
2021/10/07 07:00:24;;;;;;;3.20;2.08;;;;;;;;;;5059194;28;20020;-53
2021/10/07 07:02:52;;;;;;;3.30;2.28;;;;;;;;;;5056904;28;20036;-55
2021/10/07 07:05:18;;;;;;;2.40;1.92;;;;;;;;;;5067175;28;20040;-52
2021/10/07 07:07:44;;;;;;;5.70;2.55;;;;;;;;;;5061555;28;20029;-55
2021/10/07 07:10:18;;;;;;;2.72;2.10;;;;;;;;;;5073720;28;20024;-56
2021/10/07 07:12:56;;;;;;;4.60;2.88;;;;;;;;;;5074328;28;20392;-56
2021/10/07 07:15:22;;;;;;;4.35;2.00;;;;;;;;;;5075997;28;20029;-56
2021/10/07 07:17:48;;;;;;;4.35;2.47;;;;;;;;;;5075330;28;20028;-53
2021/10/07 07:20:14;;;;;;;3.28;2.35;;;;;;;;;;5074621;28;20072;-56
2021/10/07 07:22:40;;;;;;;3.60;2.45;;;;;;;;;;5074802;28;20178;-55
2021/10/07 07:25:07;;;;;;;4.53;2.22;;;;;;;;;;5072999;28;20028;-52
2021/10/07 07:27:34;;;;;;;6.47;3.08;;;;;;;;;;5075444;28;20123;-52
2021/10/07 07:30:00;;;;;;;3.90;2.38;;;;;;;;;;5074947;28;20094;-52
2021/10/07 07:32:26;;;;;;;5.03;2.78;;;;;;;;;;5075387;28;20465;-54
2021/10/07 07:34:52;;;;;;;5.15;3.38;;;;;;;;;;5075622;28;20053;-53
2021/10/07 07:37:18;;;;;;;4.25;2.90;;;;;;;;;;5075812;28;20048;-54
2021/10/07 07:39:44;;;;;;;6.45;3.90;;;;;;;;;;5075272;28;20025;-55
2021/10/07 07:42:10;;;;;;;4.80;2.92;;;;;;;;;;5074997;28;20427;-57
2021/10/07 07:44:36;;;;;;;4.78;3.10;;;;;;;;;;5069703;28;20109;-52
2021/10/07 07:47:03;;;;;;;3.55;2.70;;;;;;;;;;5071803;28;20038;-57
2021/10/07 07:49:29;;;;;;;5.95;2.75;;;;;;;;;;5071662;28;20131;-56
2021/10/07 07:51:55;;;;;;;3.90;2.72;;;;;;;;;;5073652;28;20441;-54
2021/10/07 07:54:21;;;;;;;6.30;2.83;;;;;;;;;;5076878;28;20043;-55
2021/10/07 07:56:47;;;;;;;5.32;3.08;;;;;;;;;;5075195;28;20449;-55
2021/10/07 07:59:13;;;;;;;6.13;2.90;;;;;;;;;;5074745;28;20021;-58
2021/10/07 08:01:39;;;;;;;5.53;2.95;;;;;;;;;;5074656;28;20029;-55
2021/10/07 08:04:06;;;;;;;5.35;3.30;;;;;;;;;;5072998;28;20036;-51
2021/10/07 08:06:32;;;;;;;5.72;2.95;;;;;;;;;;5071655;28;20054;-56
2021/10/07 08:08:58;;;;;;;5.05;2.95;;;;;;;;;;5074748;28;20028;-57
2021/10/07 08:11:24;;;;;;;4.47;2.58;;;;;;;;;;5081965;28;20025;-54
2021/10/07 08:13:51;;;;;;;3.30;2.20;;;;;;;;;;5074392;28;20484;-54
2021/10/07 08:16:17;;;;;;;3.80;2.33;;;;;;;;;;5071893;28;20029;-52
2021/10/07 08:18:43;;;;;;;3.33;2.30;;;;;;;;;;5068627;28;20068;-53
2021/10/07 08:21:09;;;;;;;3.92;2.00;;;;;;;;;;5078924;28;20444;-57
2021/10/07 08:23:37;;;;;;;3.92;2.40;;;;;;;;;;5073942;28;20465;-56
2021/10/07 08:26:03;;;;;;;3.05;2.00;;;;;;;;;;5073605;28;20342;-54
2021/10/07 08:28:29;;;;;;;4.63;1.98;;;;;;;;;;5074211;28;20039;-53
2021/10/07 08:30:55;;;;;;;2.95;1.80;;;;;;;;;;5074651;28;20037;-54
2021/10/07 08:33:21;;;;;;;2.55;1.70;;;;;;;;;;5069727;28;20033;-53
2021/10/07 08:35:50;;;;;;;3.90;2.13;;;;;;;;;;5069025;28;20028;-54
2021/10/07 08:38:16;;;;;;;3.45;2.25;;;;;;;;;;5070445;28;20438;-52
2021/10/07 08:40:42;;;;;;;2.60;1.52;;;;;;;;;;5068738;28;20021;-53
2021/10/07 08:43:08;;;;;;;3.83;1.50;;;;;;;;;;5068843;28;20361;-58
2021/10/07 08:45:34;;;;;;;3.53;1.65;;;;;;;;;;5074276;28;20468;-56
2021/10/07 08:48:00;;;;;;;4.25;1.73;;;;;;;;;;5074374;28;20039;-57
2021/10/07 08:50:27;;;;;;;1.83;1.35;;;;;;;;;;5074770;28;20028;-55
2021/10/07 08:52:53;;;;;;;3.50;1.90;;;;;;;;;;5075298;28;20029;-53
2021/10/07 08:55:19;;;;;;;2.28;1.20;;;;;;;;;;5074854;28;20502;-53
2021/10/07 08:57:46;;;;;;;3.53;2.08;;;;;;;;;;5073039;28;20088;-53
2021/10/07 09:00:14;;;;;;;3.15;1.58;;;;;;;;;;5073327;28;20031;-55
2021/10/07 09:02:40;;;;;;;3.53;1.45;;;;;;;;;;5070953;28;20031;-54
2021/10/07 09:05:09;;;;;;;4.07;1.58;;;;;;;;;;5072530;28;20358;-53
2021/10/07 09:07:52;;;;;;;3.33;1.88;;;;;;;;;;5068979;28;20473;-56
2021/10/07 09:10:18;;;;;;;2.92;1.58;;;;;;;;;;5076821;28;20048;-55
2021/10/07 09:13:02;;;;;;;2.80;1.80;;;;;;;;;;5071908;28;20025;-53
2021/10/07 09:15:29;;;;;;;5.95;2.50;;;;;;;;;;5072409;28;20107;-53
2021/10/07 09:17:55;;;;;;;3.85;1.70;;;;;;;;;;5070655;28;20074;-56
2021/10/07 09:20:34;;;;;;;2.92;1.95;;;;;;;;;;5074483;28;20013;-54
2021/10/07 09:23:16;;;;;;;1.95;1.35;;;;;;;;;;5073640;28;20532;-55
2021/10/07 09:25:57;;;;;;;4.97;1.80;;;;;;;;;;5072699;28;20108;-56
2021/10/07 09:28:24;;;;;;;4.55;1.77;;;;;;;;;;5074800;28;20028;-57
2021/10/07 09:30:58;;;;;;;2.60;1.40;;;;;;;;;;5072466;28;20031;-56
2021/10/07 09:33:28;;;;;;;5.40;1.45;;;;;;;;;;5067623;28;20097;-52
2021/10/07 09:36:10;;;;;;;4.80;1.70;;;;;;;;;;5072943;28;20025;-55
2021/10/07 09:38:36;;;;;;;2.20;1.38;;;;;;;;;;5072212;28;20457;-54
2021/10/07 09:41:12;;;;;;;2.95;1.52;;;;;;;;;;5072696;28;20074;-53
2021/10/07 09:43:51;;;;;;;3.22;1.60;;;;;;;;;;5067019;28;20615;-53
2021/10/07 09:46:37;;;;;;;2.30;1.50;;;;;;;;;;5067970;28;20039;-53
2021/10/07 09:49:04;;;;;;;2.63;1.30;;;;;;;;;;5061298;28;20098;-54
2021/10/07 09:51:47;;;;;;;2.10;1.25;;;;;;;;;;5072637;28;20490;-53
2021/10/07 09:54:16;;;;;;;7.00;1.77;;;;;;;;;;5069346;28;20029;-52
2021/10/07 09:56:42;;;;;;;2.58;1.10;;;;;;;;;;5074021;28;20032;-55
2021/10/07 09:59:09;;;;;;;1.30;1.15;;;;;;;;;;5070239;28;20060;-54
2021/10/07 10:01:37;;;;;;;2.40;0.95;;;;;;;;;;5072407;28;20040;-57
2021/10/07 10:04:03;;;;;;;1.23;0.90;;;;;;;;;;5082267;28;20437;-55
2021/10/07 10:06:29;;;;;;;2.13;1.25;;;;;;;;;;5072549;28;20033;-56
2021/10/07 10:08:55;;;;;;;2.60;1.00;;;;;;;;;;5070867;28;20151;-51
2021/10/07 10:11:22;;;;;;;2.55;1.05;;;;;;;;;;5071059;28;20028;-55
2021/10/07 10:13:48;;;;;;;2.97;0.90;;;;;;;;;;5071895;28;20417;-55
2021/10/07 10:16:16;;;;;;;1.90;0.75;;;;;;;;;;5070092;28;20047;-54
2021/10/07 10:18:42;;;;;;;1.00;0.70;;;;;;;;;;5072973;28;20491;-53
2021/10/07 10:21:09;;;;;;;1.80;0.63;;;;;;;;;;5070786;28;20119;-53
2021/10/07 10:23:37;;;;;;;3.20;1.20;;;;;;;;;;5069136;28;20028;-52
2021/10/07 10:26:09;;;;;;;1.65;0.90;;;;;;;;;;5068212;28;20033;-54
2021/10/07 10:28:35;;;;;;;4.88;0.90;;;;;;;;;;5068191;28;20032;-53
2021/10/07 10:31:06;;;;;;;2.53;1.02;;;;;;;;;;5065866;28;20032;-51
2021/10/07 10:33:33;;;;;;;2.88;0.93;;;;;;;;;;5072217;28;20029;-52
2021/10/07 10:35:59;;;;;;;1.90;0.88;;;;;;;;;;5071567;28;20028;-52
2021/10/07 10:38:27;;;;;;;0.88;0.50;;;;;;;;;;5067768;28;20032;-55
2021/10/07 10:40:53;;;;;;;1.27;0.65;;;;;;;;;;5071268;28;20544;-54
2021/10/07 10:43:19;;;;;;;2.90;0.93;;;;;;;;;;5063154;28;20113;-54
2021/10/07 10:45:48;;;;;;;1.08;0.70;;;;;;;;;;5069950;28;20377;-55
2021/10/07 10:48:33;;;;;;;1.92;0.60;;;;;;;;;;5070934;28;20491;-55
2021/10/07 10:51:02;;;;;;;1.17;0.60;;;;;;;;;;5065496;28;20036;-51
2021/10/07 10:53:28;;;;;;;3.00;0.85;;;;;;;;;;5071708;28;20032;-53
2021/10/07 10:55:54;;;;;;;4.35;0.65;;;;;;;;;;5071457;28;20410;-55
2021/10/07 10:58:20;;;;;;;1.48;1.10;;;;;;;;;;5071903;28;20020;-52
2021/10/07 11:00:48;;;;;;;1.58;0.43;;;;;;;;;;5071335;28;20028;-53
2021/10/07 11:03:26;;;;;;;2.88;1.08;;;;;;;;;;5068187;28;20027;-51
2021/10/07 11:06:03;;;;;;;1.63;0.60;;;;;;;;;;5071934;28;20507;-56
2021/10/07 11:08:32;;;;;;;4.57;1.13;;;;;;;;;;5066420;28;20028;-52
2021/10/07 11:10:59;;;;;;;1.15;0.40;;;;;;;;;;5071805;28;20468;-52
2021/10/07 11:13:26;;;;;;;3.55;0.70;;;;;;;;;;5070812;28;20032;-56
2021/10/07 11:15:56;;;;;;;1.08;0.60;;;;;;;;;;5071079;28;20035;-56
2021/10/07 11:18:23;;;;;;;1.83;0.70;;;;;;;;;;5069677;28;20493;-52
2021/10/07 11:20:55;;;;;;;2.80;0.40;;;;;;;;;;5068350;28;20020;-51
2021/10/07 11:23:21;;;;;;;0.90;0.50;;;;;;;;;;5068413;28;20111;-51
2021/10/07 11:25:49;;;;;;;2.38;0.50;;;;;;;;;;5068758;28;20049;-52
2021/10/07 11:28:17;;;;;;;2.95;1.00;;;;;;;;;;5074899;28;21577;-53
2021/10/07 11:30:45;;;;;;;1.58;0.50;;;;;;;;;;5073906;28;20456;-58
2021/10/07 11:33:11;;;;;;;0.77;0.50;;;;;;;;;;5065613;28;20876;-55
2021/10/07 11:35:37;;;;;;;0.73;0.40;;;;;;;;;;5068683;28;20108;-52
2021/10/07 11:38:08;;;;;;;0.93;0.50;;;;;;;;;;5066322;28;20162;-54
2021/10/07 11:40:42;;;;;;;2.10;0.60;;;;;;;;;;5065441;28;20096;-52
2021/10/07 11:43:13;;;;;;;0.95;0.50;;;;;;;;;;5068101;28;20032;-52
2021/10/07 11:45:41;;;;;;;1.13;0.47;;;;;;;;;;5064196;28;20092;-53
2021/10/07 11:48:10;;;;;;;1.98;0.30;;;;;;;;;;5067429;28;20024;-56
2021/10/07 11:50:46;;;;;;;1.55;0.30;;;;;;;;;;5070602;28;20024;-54
2021/10/07 11:53:14;;;;;;;0.82;0.50;;;;;;;;;;5065045;28;20452;-55
2021/10/07 11:55:47;;;;;;;2.00;0.98;;;;;;;;;;5066017;28;20078;-55
2021/10/07 11:58:14;;;;;;;5.20;0.80;;;;;;;;;;5067183;28;20111;-55
2021/10/07 12:00:41;;;;;;;3.95;0.85;;;;;;;;;;5075900;28;20020;-53
2021/10/07 12:03:18;;;;;;;1.08;0.98;;;;;;;;;;5075001;28;20031;-52
2021/10/07 12:05:46;;;;;;;1.10;0.70;;;;;;;;;;5075296;28;20039;-57
2021/10/07 12:08:13;;;;;;;2.72;0.70;;;;;;;;;;5074517;28;20039;-53
2021/10/07 12:10:39;;;;;;;;;;;;;;;;;;5075159;28;20025;-57
2021/10/07 12:13:08;;;;;;;3.80;0.90;;;;;;;;;;5080703;28;20356;-56
2021/10/07 12:15:36;;;;;;;1.50;0.70;;;;;;;;;;5069862;28;20029;-54
2021/10/07 12:18:03;;;;;;;2.67;0.90;;;;;;;;;;5064846;28;20044;-53
2021/10/07 12:20:29;;;;;;;1.35;0.85;;;;;;;;;;5074694;28;20113;-52
2021/10/07 12:23:00;;;;;;;1.98;0.68;;;;;;;;;;5073108;28;20060;-53
2021/10/07 12:25:26;;;;;;;2.05;0.60;;;;;;;;;;5067548;28;20059;-56
2021/10/07 12:27:52;;;;;;;0.70;0.45;;;;;;;;;;5077784;28;20028;-56
2021/10/07 12:30:18;;;;;;;0.55;0.40;;;;;;;;;;5079071;28;20036;-52
2021/10/07 12:32:43;;;;;;;1.20;0.50;;;;;;;;;;5073771;28;20043;-52
2021/10/07 12:35:10;;;;;;;2.83;0.60;;;;;;;;;;5073910;28;20110;-54
2021/10/07 12:37:39;;;;;;;1.17;0.68;;;;;;;;;;5075104;28;20024;-54
2021/10/07 12:40:06;;;;;;;1.20;0.50;;;;;;;;;;5072290;28;20396;-53
2021/10/07 12:42:33;;;;;;;2.88;1.13;;;;;;;;;;5074364;28;20470;-55
2021/10/07 12:45:00;;;;;;;1.05;0.70;;;;;;;;;;5074187;28;20094;-56
2021/10/07 12:47:29;;;;;;;0.80;0.38;;;;;;;;;;5068939;28;20111;-55
2021/10/07 12:49:56;;;;;;;2.42;0.88;;;;;;;;;;5072475;28;20029;-59
2021/10/07 12:52:38;;;;;;;1.83;0.68;;;;;;;;;;5073700;28;20182;-57
2021/10/07 12:55:03;;;;;;;2.17;0.80;;;;;;;;;;5073660;28;20068;-54
2021/10/07 12:57:40;;;;;;;1.58;0.50;;;;;;;;;;5073639;28;20025;-55
2021/10/07 13:00:08;;;;;;;2.20;0.65;;;;;;;;;;5073950;28;20423;-53
2021/10/07 13:02:34;;;;;;;2.92;0.80;;;;;;;;;;5072032;28;20459;-56
2021/10/07 13:05:13;;;;;;;1.57;0.70;;;;;;;;;;5068216;28;20437;-56
2021/10/07 13:07:39;;;;;;;2.57;0.80;;;;;;;;;;5075142;28;20392;-53
2021/10/07 13:10:06;;;;;;;2.47;0.90;;;;;;;;;;5072459;28;20368;-54
2021/10/07 13:12:33;;;;;;;1.25;0.73;;;;;;;;;;5074124;28;20108;-55
2021/10/07 13:14:59;;;;;;;1.55;0.77;;;;;;;;;;5068197;28;20020;-55
2021/10/07 13:17:25;;;;;;;1.30;0.68;;;;;;;;;;5073855;28;20029;-57
2021/10/07 13:19:51;;;;;;;1.75;0.50;;;;;;;;;;5073206;28;20071;-58
2021/10/07 13:22:17;;;;;;;3.08;0.65;;;;;;;;;;5068735;28;20035;-57
2021/10/07 13:24:43;;;;;;;0.68;0.38;;;;;;;;;;5070964;28;20033;-55
2021/10/07 13:27:12;;;;;;;2.20;0.60;;;;;;;;;;5073164;28;20376;-56
2021/10/07 13:29:38;;;;;;;1.92;0.52;;;;;;;;;;5075902;28;20360;-54
2021/10/07 13:32:05;;;;;;;1.27;0.47;;;;;;;;;;5073231;28;20107;-55
2021/10/07 13:34:31;;;;;;;0.95;0.60;;;;;;;;;;5073526;28;20027;-57
2021/10/07 13:36:57;;;;;;;1.88;0.70;;;;;;;;;;5073705;28;20483;-55
2021/10/07 13:39:23;;;;;;;4.55;1.10;;;;;;;;;;5070672;28;20107;-57
2021/10/07 13:41:49;;;;;;;4.28;0.90;;;;;;;;;;5071741;28;20032;-55
2021/10/07 13:44:19;;;;;;;2.35;0.93;;;;;;;;;;5072560;28;20031;-54
2021/10/07 13:46:45;;;;;;;2.25;0.85;;;;;;;;;;5073764;28;20020;-55
2021/10/07 13:49:11;;;;;;;1.13;0.50;;;;;;;;;;5072858;28;20020;-55
2021/10/07 13:51:37;;;;;;;2.00;0.70;;;;;;;;;;5072900;28;20093;-57
2021/10/07 13:54:03;;;;;;;0.80;0.38;;;;;;;;;;5073536;28;20021;-54
2021/10/07 13:56:29;;;;;;;1.48;0.60;;;;;;;;;;5072600;28;20456;-54
2021/10/07 13:58:55;;;;;;;2.50;0.85;;;;;;;;;;5069249;28;20641;-55
2021/10/07 14:01:21;;;;;;;1.55;0.57;;;;;;;;;;5073334;28;20032;-57
2021/10/07 14:03:47;;;;;;;1.30;0.38;;;;;;;;;;5073270;28;20543;-55
2021/10/07 14:06:14;;;;;;;1.77;0.80;;;;;;;;;;5073844;28;20044;-54
2021/10/07 14:08:40;;;;;;;2.97;1.00;;;;;;;;;;5073347;28;20021;-52
2021/10/07 14:11:07;;;;;;;0.80;0.47;;;;;;;;;;5073670;28;20111;-57
2021/10/07 14:13:37;;;;;;;2.08;0.90;;;;;;;;;;5073365;28;20111;-56
2021/10/07 14:16:03;;;;;;;2.05;0.40;;;;;;;;;;5072598;28;20725;-56
2021/10/07 14:18:29;;;;;;;1.05;0.40;;;;;;;;;;5073114;28;20044;-51
2021/10/07 14:20:55;;;;;;;1.48;0.52;;;;;;;;;;5072178;28;20031;-55
2021/10/07 14:23:21;;;;;;;0.63;0.30;;;;;;;;;;5066409;28;20064;-55
2021/10/07 14:25:47;;;;;;;2.75;0.95;;;;;;;;;;5066851;28;20528;-56
2021/10/07 14:28:13;;;;;;;1.33;0.60;;;;;;;;;;5073229;28;20027;-54
2021/10/07 14:30:39;;;;;;;2.72;0.95;;;;;;;;;;5071112;28;20021;-56
2021/10/07 14:33:06;;;;;;;0.95;0.40;;;;;;;;;;5067557;28;20025;-53
2021/10/07 14:35:32;;;;;;;2.60;0.63;;;;;;;;;;5071457;28;20473;-53
2021/10/07 14:37:58;;;;;;;0.90;0.57;;;;;;;;;;5067185;28;20047;-53
2021/10/07 14:40:25;;;;;;;0.93;0.50;;;;;;;;;;5072353;28;20029;-55
2021/10/07 14:42:52;;;;;;;2.00;0.75;;;;;;;;;;5071672;28;20036;-55
2021/10/07 14:45:18;;;;;;;1.77;0.50;;;;;;;;;;5065143;28;20039;-55
2021/10/07 14:47:44;;;;;;;4.95;0.70;;;;;;;;;;5066063;28;20048;-52
2021/10/07 14:50:10;;;;;;;0.73;0.55;;;;;;;;;;5068202;28;20070;-56